sensor_id;sensor_type;location;lat;lon;timestamp;temperature;humidity
20463;DHT22;10390;53.566;9.980;2023-02-02T00:01:33;23.50;1.00
20463;DHT22;10390;53.566;9.980;2023-02-02T00:03:59;23.50;1.00
20463;DHT22;10390;53.566;9.980;2023-02-02T00:06:26;23.40;1.00
20463;DHT22;10390;53.566;9.980;2023-02-02T00:08:55;23.40;1.00
20463;DHT22;10390;53.566;9.980;2023-02-02T00:11:21;23.40;1.00
20463;DHT22;10390;53.566;9.980;2023-02-02T00:13:47;23.40;1.00
20463;DHT22;10390;53.566;9.980;2023-02-02T00:18:52;23.40;1.00
20463;DHT22;10390;53.566;9.980;2023-02-02T00:21:17;23.50;1.00
20463;DHT22;10390;53.566;9.980;2023-02-02T00:23:43;23.60;1.00
20463;DHT22;10390;53.566;9.980;2023-02-02T00:26:09;23.60;1.00
20463;DHT22;10390;53.566;9.980;2023-02-02T00:28:35;23.60;1.00
20463;DHT22;10390;53.566;9.980;2023-02-02T00:31:01;23.60;1.00
20463;DHT22;10390;53.566;9.980;2023-02-02T00:33:26;23.70;1.00
20463;DHT22;10390;53.566;9.980;2023-02-02T00:35:52;23.60;1.00
20463;DHT22;10390;53.566;9.980;2023-02-02T00:38:18;23.70;1.00
20463;DHT22;10390;53.566;9.980;2023-02-02T00:40:44;23.70;1.00
20463;DHT22;10390;53.566;9.980;2023-02-02T00:43:10;23.70;1.00
20463;DHT22;10390;53.566;9.980;2023-02-02T00:45:36;23.70;1.00
20463;DHT22;10390;53.566;9.980;2023-02-02T00:48:03;23.70;1.00
20463;DHT22;10390;53.566;9.980;2023-02-02T00:50:29;23.70;1.00
20463;DHT22;10390;53.566;9.980;2023-02-02T00:52:54;23.60;1.00
20463;DHT22;10390;53.566;9.980;2023-02-02T00:55:20;23.60;1.00
20463;DHT22;10390;53.566;9.980;2023-02-02T00:57:46;23.60;1.00
20463;DHT22;10390;53.566;9.980;2023-02-02T01:00:17;23.60;1.00
20463;DHT22;10390;53.566;9.980;2023-02-02T01:02:43;23.50;1.00
20463;DHT22;10390;53.566;9.980;2023-02-02T01:05:10;23.50;1.00
20463;DHT22;10390;53.566;9.980;2023-02-02T01:07:36;23.40;1.00
20463;DHT22;10390;53.566;9.980;2023-02-02T01:10:03;23.40;1.00
20463;DHT22;10390;53.566;9.980;2023-02-02T01:12:29;23.40;1.00
20463;DHT22;10390;53.566;9.980;2023-02-02T01:14:54;23.40;1.00
20463;DHT22;10390;53.566;9.980;2023-02-02T01:17:20;23.40;1.00
20463;DHT22;10390;53.566;9.980;2023-02-02T01:19:46;23.40;1.00
20463;DHT22;10390;53.566;9.980;2023-02-02T01:22:12;23.40;1.00
20463;DHT22;10390;53.566;9.980;2023-02-02T01:24:37;23.50;1.00
20463;DHT22;10390;53.566;9.980;2023-02-02T01:27:03;23.50;1.00
20463;DHT22;10390;53.566;9.980;2023-02-02T01:29:29;23.60;1.00
20463;DHT22;10390;53.566;9.980;2023-02-02T01:31:54;23.60;1.00
20463;DHT22;10390;53.566;9.980;2023-02-02T01:34:20;23.70;1.00
20463;DHT22;10390;53.566;9.980;2023-02-02T01:36:46;23.70;1.00
20463;DHT22;10390;53.566;9.980;2023-02-02T01:39:11;23.70;1.00
20463;DHT22;10390;53.566;9.980;2023-02-02T01:41:39;23.70;1.00
20463;DHT22;10390;53.566;9.980;2023-02-02T01:47:09;23.70;1.00
20463;DHT22;10390;53.566;9.980;2023-02-02T01:49:35;23.70;1.00
20463;DHT22;10390;53.566;9.980;2023-02-02T01:52:03;23.70;1.00
20463;DHT22;10390;53.566;9.980;2023-02-02T01:54:42;23.70;1.00
20463;DHT22;10390;53.566;9.980;2023-02-02T01:57:25;23.70;1.00
20463;DHT22;10390;53.566;9.980;2023-02-02T01:59:54;23.70;1.00
20463;DHT22;10390;53.566;9.980;2023-02-02T02:02:20;23.60;1.00
20463;DHT22;10390;53.566;9.980;2023-02-02T02:04:48;23.60;1.00
20463;DHT22;10390;53.566;9.980;2023-02-02T02:07:14;23.60;1.00
20463;DHT22;10390;53.566;9.980;2023-02-02T02:09:40;23.50;1.00
20463;DHT22;10390;53.566;9.980;2023-02-02T02:12:13;23.50;1.00
20463;DHT22;10390;53.566;9.980;2023-02-02T02:14:41;23.60;1.00
20463;DHT22;10390;53.566;9.980;2023-02-02T02:20:14;23.60;1.00
20463;DHT22;10390;53.566;9.980;2023-02-02T02:29:55;23.80;1.00
20463;DHT22;10390;53.566;9.980;2023-02-02T02:35:22;23.90;1.00
20463;DHT22;10390;53.566;9.980;2023-02-02T02:38:04;23.90;1.00
20463;DHT22;10390;53.566;9.980;2023-02-02T02:40:39;23.90;1.00
20463;DHT22;10390;53.566;9.980;2023-02-02T02:43:15;23.90;1.00
20463;DHT22;10390;53.566;9.980;2023-02-02T02:45:43;23.90;1.00
20463;DHT22;10390;53.566;9.980;2023-02-02T02:48:09;23.90;1.00
20463;DHT22;10390;53.566;9.980;2023-02-02T02:50:36;23.90;1.00
20463;DHT22;10390;53.566;9.980;2023-02-02T02:53:08;23.90;1.00
20463;DHT22;10390;53.566;9.980;2023-02-02T02:56:05;23.80;1.00
20463;DHT22;10390;53.566;9.980;2023-02-02T03:04:11;23.80;1.00
20463;DHT22;10390;53.566;9.980;2023-02-02T03:09:51;23.70;1.00
20463;DHT22;10390;53.566;9.980;2023-02-02T03:12:18;23.70;1.00
20463;DHT22;10390;53.566;9.980;2023-02-02T03:14:44;23.70;1.00
20463;DHT22;10390;53.566;9.980;2023-02-02T03:17:10;23.70;1.00
20463;DHT22;10390;53.566;9.980;2023-02-02T03:19:35;23.80;1.00
20463;DHT22;10390;53.566;9.980;2023-02-02T03:22:01;23.80;1.00
20463;DHT22;10390;53.566;9.980;2023-02-02T03:24:27;23.80;1.00
20463;DHT22;10390;53.566;9.980;2023-02-02T03:26:53;23.90;1.00
20463;DHT22;10390;53.566;9.980;2023-02-02T03:29:19;24.00;1.00
20463;DHT22;10390;53.566;9.980;2023-02-02T03:31:45;24.00;1.00
20463;DHT22;10390;53.566;9.980;2023-02-02T03:34:11;24.10;1.00
20463;DHT22;10390;53.566;9.980;2023-02-02T03:36:36;24.10;1.00
20463;DHT22;10390;53.566;9.980;2023-02-02T03:39:02;24.10;1.00
20463;DHT22;10390;53.566;9.980;2023-02-02T03:41:27;24.10;1.00
20463;DHT22;10390;53.566;9.980;2023-02-02T03:43:53;24.10;1.00
20463;DHT22;10390;53.566;9.980;2023-02-02T03:46:19;24.10;1.00
20463;DHT22;10390;53.566;9.980;2023-02-02T03:48:44;24.10;1.00
20463;DHT22;10390;53.566;9.980;2023-02-02T03:51:12;24.10;1.00
20463;DHT22;10390;53.566;9.980;2023-02-02T03:53:39;24.10;1.00
20463;DHT22;10390;53.566;9.980;2023-02-02T03:56:05;24.00;1.00
20463;DHT22;10390;53.566;9.980;2023-02-02T03:58:31;24.00;1.00
20463;DHT22;10390;53.566;9.980;2023-02-02T04:01:09;24.00;1.00
20463;DHT22;10390;53.566;9.980;2023-02-02T04:03:35;23.90;1.00
20463;DHT22;10390;53.566;9.980;2023-02-02T04:06:00;23.90;1.00
20463;DHT22;10390;53.566;9.980;2023-02-02T04:08:26;23.80;1.00
20463;DHT22;10390;53.566;9.980;2023-02-02T04:10:53;23.80;1.00
20463;DHT22;10390;53.566;9.980;2023-02-02T04:13:18;23.80;1.00
20463;DHT22;10390;53.566;9.980;2023-02-02T04:15:44;23.80;1.00
20463;DHT22;10390;53.566;9.980;2023-02-02T04:18:10;23.80;1.00
20463;DHT22;10390;53.566;9.980;2023-02-02T04:20:35;23.90;1.00
20463;DHT22;10390;53.566;9.980;2023-02-02T04:23:01;23.90;1.00
20463;DHT22;10390;53.566;9.980;2023-02-02T04:25:26;24.00;1.00
20463;DHT22;10390;53.566;9.980;2023-02-02T04:27:52;24.10;1.00
20463;DHT22;10390;53.566;9.980;2023-02-02T04:30:17;24.10;1.00
20463;DHT22;10390;53.566;9.980;2023-02-02T04:32:44;24.20;1.00
20463;DHT22;10390;53.566;9.980;2023-02-02T04:35:10;24.20;1.00
20463;DHT22;10390;53.566;9.980;2023-02-02T04:37:36;24.20;1.00
20463;DHT22;10390;53.566;9.980;2023-02-02T04:40:01;24.20;1.00
20463;DHT22;10390;53.566;9.980;2023-02-02T04:42:27;24.20;1.00
20463;DHT22;10390;53.566;9.980;2023-02-02T04:44:53;24.20;1.00
20463;DHT22;10390;53.566;9.980;2023-02-02T04:47:19;24.20;1.00
20463;DHT22;10390;53.566;9.980;2023-02-02T04:49:44;24.20;1.00
20463;DHT22;10390;53.566;9.980;2023-02-02T04:52:10;24.20;1.00
20463;DHT22;10390;53.566;9.980;2023-02-02T04:54:36;24.10;1.00
20463;DHT22;10390;53.566;9.980;2023-02-02T04:57:02;24.10;1.00
20463;DHT22;10390;53.566;9.980;2023-02-02T04:59:28;24.10;1.00
20463;DHT22;10390;53.566;9.980;2023-02-02T05:01:57;24.00;1.00
20463;DHT22;10390;53.566;9.980;2023-02-02T05:04:23;24.00;1.00
20463;DHT22;10390;53.566;9.980;2023-02-02T05:06:49;23.90;1.00
20463;DHT22;10390;53.566;9.980;2023-02-02T05:09:15;23.80;1.00
20463;DHT22;10390;53.566;9.980;2023-02-02T05:11:40;23.90;1.00
20463;DHT22;10390;53.566;9.980;2023-02-02T05:14:09;23.90;1.00
20463;DHT22;10390;53.566;9.980;2023-02-02T05:16:35;23.90;1.00
20463;DHT22;10390;53.566;9.980;2023-02-02T05:19:00;23.90;1.00
20463;DHT22;10390;53.566;9.980;2023-02-02T05:21:26;24.00;1.00
20463;DHT22;10390;53.566;9.980;2023-02-02T05:23:52;24.00;1.00
20463;DHT22;10390;53.566;9.980;2023-02-02T05:26:22;24.10;1.00
20463;DHT22;10390;53.566;9.980;2023-02-02T05:28:49;24.20;1.00
20463;DHT22;10390;53.566;9.980;2023-02-02T05:31:14;24.20;1.00
20463;DHT22;10390;53.566;9.980;2023-02-02T05:33:40;24.20;1.00
20463;DHT22;10390;53.566;9.980;2023-02-02T05:36:06;24.30;1.00
20463;DHT22;10390;53.566;9.980;2023-02-02T05:38:32;24.30;1.00
20463;DHT22;10390;53.566;9.980;2023-02-02T05:40:58;24.30;1.00
20463;DHT22;10390;53.566;9.980;2023-02-02T05:43:25;24.30;1.00
20463;DHT22;10390;53.566;9.980;2023-02-02T05:45:51;24.20;1.00
20463;DHT22;10390;53.566;9.980;2023-02-02T05:48:16;24.30;1.00
20463;DHT22;10390;53.566;9.980;2023-02-02T05:50:44;24.30;1.00
20463;DHT22;10390;53.566;9.980;2023-02-02T05:53:12;24.20;1.00
20463;DHT22;10390;53.566;9.980;2023-02-02T05:55:38;24.20;1.00
20463;DHT22;10390;53.566;9.980;2023-02-02T05:58:03;24.20;1.00
20463;DHT22;10390;53.566;9.980;2023-02-02T06:00:29;24.10;1.00
20463;DHT22;10390;53.566;9.980;2023-02-02T06:02:55;24.10;1.00
20463;DHT22;10390;53.566;9.980;2023-02-02T06:05:20;24.00;1.00
20463;DHT22;10390;53.566;9.980;2023-02-02T06:07:46;24.00;1.00
20463;DHT22;10390;53.566;9.980;2023-02-02T06:10:12;23.90;1.00
20463;DHT22;10390;53.566;9.980;2023-02-02T06:12:38;23.90;1.00
20463;DHT22;10390;53.566;9.980;2023-02-02T06:15:04;23.90;1.00
20463;DHT22;10390;53.566;9.980;2023-02-02T06:17:30;23.90;1.00
20463;DHT22;10390;53.566;9.980;2023-02-02T06:19:56;23.90;1.00
20463;DHT22;10390;53.566;9.980;2023-02-02T06:22:22;23.90;1.00
20463;DHT22;10390;53.566;9.980;2023-02-02T06:24:47;24.00;1.00
20463;DHT22;10390;53.566;9.980;2023-02-02T06:27:13;24.00;1.00
20463;DHT22;10390;53.566;9.980;2023-02-02T06:29:38;24.10;1.00
20463;DHT22;10390;53.566;9.980;2023-02-02T06:32:04;24.10;1.00
20463;DHT22;10390;53.566;9.980;2023-02-02T06:34:30;24.10;1.00
20463;DHT22;10390;53.566;9.980;2023-02-02T06:36:55;24.20;1.00
20463;DHT22;10390;53.566;9.980;2023-02-02T06:39:21;24.20;1.00
20463;DHT22;10390;53.566;9.980;2023-02-02T06:41:46;24.20;1.00
20463;DHT22;10390;53.566;9.980;2023-02-02T06:44:15;24.20;1.00
20463;DHT22;10390;53.566;9.980;2023-02-02T06:46:41;24.20;1.00
20463;DHT22;10390;53.566;9.980;2023-02-02T06:49:07;24.20;1.00
20463;DHT22;10390;53.566;9.980;2023-02-02T06:51:32;24.20;1.00
20463;DHT22;10390;53.566;9.980;2023-02-02T06:53:58;24.20;1.00
20463;DHT22;10390;53.566;9.980;2023-02-02T06:56:25;24.10;1.00
20463;DHT22;10390;53.566;9.980;2023-02-02T06:58:51;24.10;1.00
20463;DHT22;10390;53.566;9.980;2023-02-02T07:01:16;24.10;1.00
20463;DHT22;10390;53.566;9.980;2023-02-02T07:03:42;24.00;1.00
20463;DHT22;10390;53.566;9.980;2023-02-02T07:06:19;24.00;1.00
20463;DHT22;10390;53.566;9.980;2023-02-02T07:08:46;23.90;1.00
20463;DHT22;10390;53.566;9.980;2023-02-02T07:11:12;24.00;1.00
20463;DHT22;10390;53.566;9.980;2023-02-02T07:13:37;23.90;1.00
20463;DHT22;10390;53.566;9.980;2023-02-02T07:16:04;23.90;1.00
20463;DHT22;10390;53.566;9.980;2023-02-02T07:18:31;24.00;1.00
20463;DHT22;10390;53.566;9.980;2023-02-02T07:21:00;24.00;1.00
20463;DHT22;10390;53.566;9.980;2023-02-02T07:23:29;24.00;1.00
20463;DHT22;10390;53.566;9.980;2023-02-02T07:26:04;24.10;1.00
20463;DHT22;10390;53.566;9.980;2023-02-02T07:28:30;24.20;1.00
20463;DHT22;10390;53.566;9.980;2023-02-02T07:30:56;24.20;1.00
20463;DHT22;10390;53.566;9.980;2023-02-02T07:33:21;24.30;1.00
20463;DHT22;10390;53.566;9.980;2023-02-02T07:35:47;24.30;1.00
20463;DHT22;10390;53.566;9.980;2023-02-02T07:38:12;24.30;1.00
20463;DHT22;10390;53.566;9.980;2023-02-02T07:40:38;24.30;1.00
20463;DHT22;10390;53.566;9.980;2023-02-02T07:43:03;24.30;1.00
20463;DHT22;10390;53.566;9.980;2023-02-02T07:45:30;24.20;1.00
20463;DHT22;10390;53.566;9.980;2023-02-02T07:47:56;24.30;1.00
20463;DHT22;10390;53.566;9.980;2023-02-02T07:50:22;24.30;1.00
20463;DHT22;10390;53.566;9.980;2023-02-02T07:52:48;24.20;1.00
20463;DHT22;10390;53.566;9.980;2023-02-02T07:55:13;24.20;1.00
20463;DHT22;10390;53.566;9.980;2023-02-02T07:57:39;24.20;1.00
20463;DHT22;10390;53.566;9.980;2023-02-02T08:00:05;24.10;1.00
20463;DHT22;10390;53.566;9.980;2023-02-02T08:02:31;24.10;1.00
20463;DHT22;10390;53.566;9.980;2023-02-02T08:04:57;24.00;1.00
20463;DHT22;10390;53.566;9.980;2023-02-02T08:07:22;24.00;1.00
20463;DHT22;10390;53.566;9.980;2023-02-02T08:09:49;24.00;1.00
20463;DHT22;10390;53.566;9.980;2023-02-02T08:12:15;23.90;1.00
20463;DHT22;10390;53.566;9.980;2023-02-02T08:14:41;23.90;1.00
20463;DHT22;10390;53.566;9.980;2023-02-02T08:17:07;24.00;1.00
20463;DHT22;10390;53.566;9.980;2023-02-02T08:19:32;24.00;1.00
20463;DHT22;10390;53.566;9.980;2023-02-02T08:21:58;24.00;1.00
20463;DHT22;10390;53.566;9.980;2023-02-02T08:24:23;24.00;1.00
20463;DHT22;10390;53.566;9.980;2023-02-02T08:26:49;24.10;1.00
20463;DHT22;10390;53.566;9.980;2023-02-02T08:29:15;24.10;1.00
20463;DHT22;10390;53.566;9.980;2023-02-02T08:31:43;24.20;1.00
20463;DHT22;10390;53.566;9.980;2023-02-02T08:34:10;24.20;1.00
20463;DHT22;10390;53.566;9.980;2023-02-02T08:36:36;24.20;1.00
20463;DHT22;10390;53.566;9.980;2023-02-02T08:39:05;24.20;1.00
20463;DHT22;10390;53.566;9.980;2023-02-02T08:41:31;24.20;1.00
20463;DHT22;10390;53.566;9.980;2023-02-02T08:43:57;24.20;1.00
20463;DHT22;10390;53.566;9.980;2023-02-02T08:46:23;24.20;1.00
20463;DHT22;10390;53.566;9.980;2023-02-02T08:48:49;24.20;1.00
20463;DHT22;10390;53.566;9.980;2023-02-02T08:51:16;24.20;1.00
20463;DHT22;10390;53.566;9.980;2023-02-02T08:53:43;24.20;1.00
20463;DHT22;10390;53.566;9.980;2023-02-02T08:56:17;24.20;1.00
20463;DHT22;10390;53.566;9.980;2023-02-02T08:58:48;24.20;1.00
20463;DHT22;10390;53.566;9.980;2023-02-02T09:03:42;24.20;1.00
20463;DHT22;10390;53.566;9.980;2023-02-02T09:06:13;24.20;1.00
20463;DHT22;10390;53.566;9.980;2023-02-02T09:08:40;24.20;1.00
20463;DHT22;10390;53.566;9.980;2023-02-02T09:11:17;24.20;1.00
20463;DHT22;10390;53.566;9.980;2023-02-02T09:13:44;24.10;1.00
20463;DHT22;10390;53.566;9.980;2023-02-02T09:16:11;24.20;1.00
20463;DHT22;10390;53.566;9.980;2023-02-02T09:18:38;24.20;1.00
20463;DHT22;10390;53.566;9.980;2023-02-02T09:21:06;24.20;1.00
20463;DHT22;10390;53.566;9.980;2023-02-02T09:23:34;24.20;1.00
20463;DHT22;10390;53.566;9.980;2023-02-02T09:26:14;24.20;1.00
20463;DHT22;10390;53.566;9.980;2023-02-02T09:28:42;24.20;1.00
20463;DHT22;10390;53.566;9.980;2023-02-02T09:31:08;24.20;1.00
20463;DHT22;10390;53.566;9.980;2023-02-02T09:33:34;24.10;1.00
20463;DHT22;10390;53.566;9.980;2023-02-02T09:36:20;24.00;1.00
20463;DHT22;10390;53.566;9.980;2023-02-02T09:38:47;24.00;1.00
20463;DHT22;10390;53.566;9.980;2023-02-02T09:44:26;24.00;1.00
20463;DHT22;10390;53.566;9.980;2023-02-02T09:47:14;23.90;1.00
20463;DHT22;10390;53.566;9.980;2023-02-02T09:50:01;23.90;1.00
20463;DHT22;10390;53.566;9.980;2023-02-02T09:52:40;24.00;1.00
20463;DHT22;10390;53.566;9.980;2023-02-02T09:57:44;24.00;1.00
20463;DHT22;10390;53.566;9.980;2023-02-02T10:00:30;24.00;1.00
20463;DHT22;10390;53.566;9.980;2023-02-02T10:03:01;24.00;1.00
20463;DHT22;10390;53.566;9.980;2023-02-02T10:08:35;24.10;1.00
20463;DHT22;10390;53.566;9.980;2023-02-02T10:11:53;24.20;1.00
20463;DHT22;10390;53.566;9.980;2023-02-02T10:14:20;24.20;1.00
20463;DHT22;10390;53.566;9.980;2023-02-02T10:16:52;24.30;1.00
20463;DHT22;10390;53.566;9.980;2023-02-02T10:19:18;24.30;1.00
20463;DHT22;10390;53.566;9.980;2023-02-02T10:22:04;24.40;1.00
20463;DHT22;10390;53.566;9.980;2023-02-02T10:24:34;24.40;1.00
20463;DHT22;10390;53.566;9.980;2023-02-02T10:27:03;24.50;1.00
20463;DHT22;10390;53.566;9.980;2023-02-02T10:29:47;24.50;1.00
20463;DHT22;10390;53.566;9.980;2023-02-02T10:35:41;24.50;1.00
20463;DHT22;10390;53.566;9.980;2023-02-02T10:37:53;24.60;1.00
20463;DHT22;10390;53.566;9.980;2023-02-02T10:43:07;24.60;1.00
20463;DHT22;10390;53.566;9.980;2023-02-02T10:45:56;24.60;1.00
20463;DHT22;10390;53.566;9.980;2023-02-02T10:48:29;24.70;1.00
20463;DHT22;10390;53.566;9.980;2023-02-02T10:51:01;24.70;1.00
20463;DHT22;10390;53.566;9.980;2023-02-02T10:53:29;24.70;1.00
20463;DHT22;10390;53.566;9.980;2023-02-02T10:56:05;24.70;1.00
20463;DHT22;10390;53.566;9.980;2023-02-02T10:58:58;24.60;1.00
20463;DHT22;10390;53.566;9.980;2023-02-02T11:01:25;24.50;1.00
20463;DHT22;10390;53.566;9.980;2023-02-02T11:03:51;24.50;1.00
20463;DHT22;10390;53.566;9.980;2023-02-02T11:06:36;24.40;1.00
20463;DHT22;10390;53.566;9.980;2023-02-02T11:09:20;24.30;1.00
20463;DHT22;10390;53.566;9.980;2023-02-02T11:11:50;24.30;1.00
20463;DHT22;10390;53.566;9.980;2023-02-02T11:17:21;24.30;1.00
20463;DHT22;10390;53.566;9.980;2023-02-02T11:19:47;24.30;1.00
20463;DHT22;10390;53.566;9.980;2023-02-02T11:22:35;24.30;1.00
20463;DHT22;10390;53.566;9.980;2023-02-02T11:27:39;24.30;1.00
20463;DHT22;10390;53.566;9.980;2023-02-02T11:30:29;24.30;1.00
20463;DHT22;10390;53.566;9.980;2023-02-02T11:32:57;24.30;1.00
20463;DHT22;10390;53.566;9.980;2023-02-02T11:35:24;24.20;1.00
20463;DHT22;10390;53.566;9.980;2023-02-02T11:40:37;24.30;1.00
20463;DHT22;10390;53.566;9.980;2023-02-02T11:43:13;24.30;1.00
20463;DHT22;10390;53.566;9.980;2023-02-02T11:45:41;24.30;1.00
20463;DHT22;10390;53.566;9.980;2023-02-02T11:48:19;24.30;1.00
20463;DHT22;10390;53.566;9.980;2023-02-02T11:50:49;24.30;1.00
20463;DHT22;10390;53.566;9.980;2023-02-02T11:53:28;24.30;1.00
20463;DHT22;10390;53.566;9.980;2023-02-02T11:55:58;24.30;1.00
20463;DHT22;10390;53.566;9.980;2023-02-02T11:58:26;24.30;1.00
20463;DHT22;10390;53.566;9.980;2023-02-02T12:01:00;24.40;1.00
20463;DHT22;10390;53.566;9.980;2023-02-02T12:05:55;24.40;1.00
20463;DHT22;10390;53.566;9.980;2023-02-02T12:08:20;24.40;1.00
20463;DHT22;10390;53.566;9.980;2023-02-02T12:11:01;24.50;1.00
20463;DHT22;10390;53.566;9.980;2023-02-02T12:13:39;24.40;1.00
20463;DHT22;10390;53.566;9.980;2023-02-02T12:16:50;24.40;1.00
20463;DHT22;10390;53.566;9.980;2023-02-02T12:33:54;24.30;1.00
20463;DHT22;10390;53.566;9.980;2023-02-02T12:36:40;24.30;1.00
20463;DHT22;10390;53.566;9.980;2023-02-02T12:42:27;24.40;1.00
20463;DHT22;10390;53.566;9.980;2023-02-02T12:51:02;24.40;1.00
20463;DHT22;10390;53.566;9.980;2023-02-02T12:56:42;24.50;1.00
20463;DHT22;10390;53.566;9.980;2023-02-02T13:05:37;24.50;1.00
20463;DHT22;10390;53.566;9.980;2023-02-02T13:08:11;24.50;1.00
20463;DHT22;10390;53.566;9.980;2023-02-02T13:10:42;24.50;1.00
20463;DHT22;10390;53.566;9.980;2023-02-02T13:13:13;24.50;1.00
20463;DHT22;10390;53.566;9.980;2023-02-02T13:15:45;24.50;1.00
20463;DHT22;10390;53.566;9.980;2023-02-02T13:18:31;24.50;1.00
20463;DHT22;10390;53.566;9.980;2023-02-02T13:21:05;24.50;1.00
20463;DHT22;10390;53.566;9.980;2023-02-02T13:26:05;24.60;1.00
20463;DHT22;10390;53.566;9.980;2023-02-02T13:28:47;24.60;1.00
20463;DHT22;10390;53.566;9.980;2023-02-02T13:32:05;24.60;1.00
20463;DHT22;10390;53.566;9.980;2023-02-02T13:37:12;24.50;1.00
20463;DHT22;10390;53.566;9.980;2023-02-02T13:39:47;24.50;1.00
20463;DHT22;10390;53.566;9.980;2023-02-02T13:42:26;24.50;1.00
20463;DHT22;10390;53.566;9.980;2023-02-02T13:45:00;24.50;1.00
20463;DHT22;10390;53.566;9.980;2023-02-02T13:47:39;24.50;1.00
20463;DHT22;10390;53.566;9.980;2023-02-02T13:50:13;24.60;1.00
20463;DHT22;10390;53.566;9.980;2023-02-02T14:00:43;24.80;1.00
20463;DHT22;10390;53.566;9.980;2023-02-02T14:03:27;24.90;1.00
20463;DHT22;10390;53.566;9.980;2023-02-02T14:06:14;24.90;1.00
20463;DHT22;10390;53.566;9.980;2023-02-02T14:08:53;24.90;1.00
20463;DHT22;10390;53.566;9.980;2023-02-02T14:11:40;24.90;1.00
20463;DHT22;10390;53.566;9.980;2023-02-02T14:14:18;24.90;1.00
20463;DHT22;10390;53.566;9.980;2023-02-02T14:19:47;24.90;1.00
20463;DHT22;10390;53.566;9.980;2023-02-02T14:24:41;24.90;1.00
20463;DHT22;10390;53.566;9.980;2023-02-02T14:34:49;24.80;1.00
20463;DHT22;10390;53.566;9.980;2023-02-02T14:42:55;24.80;1.00
20463;DHT22;10390;53.566;9.980;2023-02-02T14:45:47;24.70;1.00
20463;DHT22;10390;53.566;9.980;2023-02-02T14:48:24;24.70;1.00
20463;DHT22;10390;53.566;9.980;2023-02-02T14:50:57;24.60;1.00
20463;DHT22;10390;53.566;9.980;2023-02-02T14:53:34;24.60;1.00
20463;DHT22;10390;53.566;9.980;2023-02-02T14:56:13;24.60;1.00
20463;DHT22;10390;53.566;9.980;2023-02-02T14:58:53;24.60;1.00
20463;DHT22;10390;53.566;9.980;2023-02-02T15:01:28;24.70;1.00
20463;DHT22;10390;53.566;9.980;2023-02-02T15:06:39;24.80;1.00
20463;DHT22;10390;53.566;9.980;2023-02-02T15:14:44;25.00;1.00
20463;DHT22;10390;53.566;9.980;2023-02-02T15:20:31;25.10;1.00
20463;DHT22;10390;53.566;9.980;2023-02-02T15:24:00;25.20;1.00
20463;DHT22;10390;53.566;9.980;2023-02-02T15:26:21;25.20;1.00
20463;DHT22;10390;53.566;9.980;2023-02-02T15:28:57;25.20;1.00
20463;DHT22;10390;53.566;9.980;2023-02-02T15:31:46;25.20;1.00
20463;DHT22;10390;53.566;9.980;2023-02-02T15:34:38;25.10;1.00
20463;DHT22;10390;53.566;9.980;2023-02-02T15:37:07;25.10;1.00
20463;DHT22;10390;53.566;9.980;2023-02-02T15:39:43;25.00;1.00
20463;DHT22;10390;53.566;9.980;2023-02-02T15:42:39;25.00;1.00
20463;DHT22;10390;53.566;9.980;2023-02-02T15:48:11;24.90;1.00
20463;DHT22;10390;53.566;9.980;2023-02-02T15:50:43;24.80;1.00
20463;DHT22;10390;53.566;9.980;2023-02-02T15:53:17;24.80;1.00
20463;DHT22;10390;53.566;9.980;2023-02-02T15:55:43;24.70;1.00
20463;DHT22;10390;53.566;9.980;2023-02-02T15:58:30;24.70;1.00
20463;DHT22;10390;53.566;9.980;2023-02-02T16:01:02;24.70;1.00
20463;DHT22;10390;53.566;9.980;2023-02-02T16:03:42;24.70;1.00
20463;DHT22;10390;53.566;9.980;2023-02-02T16:06:10;24.80;1.00
20463;DHT22;10390;53.566;9.980;2023-02-02T16:08:37;24.90;1.00
20463;DHT22;10390;53.566;9.980;2023-02-02T16:11:19;24.90;1.00
20463;DHT22;10390;53.566;9.980;2023-02-02T16:14:07;24.90;1.00
20463;DHT22;10390;53.566;9.980;2023-02-02T16:16:38;25.00;1.00
20463;DHT22;10390;53.566;9.980;2023-02-02T16:21:39;25.10;1.00
20463;DHT22;10390;53.566;9.980;2023-02-02T16:24:13;25.20;1.00
20463;DHT22;10390;53.566;9.980;2023-02-02T16:26:40;25.20;1.00
20463;DHT22;10390;53.566;9.980;2023-02-02T16:29:08;25.30;1.00
20463;DHT22;10390;53.566;9.980;2023-02-02T16:31:34;25.30;1.00
20463;DHT22;10390;53.566;9.980;2023-02-02T16:34:00;25.30;1.00
20463;DHT22;10390;53.566;9.980;2023-02-02T16:36:28;25.30;1.00
20463;DHT22;10390;53.566;9.980;2023-02-02T16:38:57;25.30;1.00
20463;DHT22;10390;53.566;9.980;2023-02-02T16:41:29;25.30;1.00
20463;DHT22;10390;53.566;9.980;2023-02-02T16:44:29;25.30;1.00
20463;DHT22;10390;53.566;9.980;2023-02-02T16:46:56;25.10;1.00
20463;DHT22;10390;53.566;9.980;2023-02-02T16:49:24;25.10;1.00
20463;DHT22;10390;53.566;9.980;2023-02-02T16:52:15;25.10;1.00
20463;DHT22;10390;53.566;9.980;2023-02-02T16:54:50;25.00;1.00
20463;DHT22;10390;53.566;9.980;2023-02-02T16:57:20;24.90;1.00
20463;DHT22;10390;53.566;9.980;2023-02-02T16:59:52;24.90;1.00
20463;DHT22;10390;53.566;9.980;2023-02-02T17:02:28;24.90;1.00
20463;DHT22;10390;53.566;9.980;2023-02-02T17:05:02;24.80;1.00
20463;DHT22;10390;53.566;9.980;2023-02-02T17:07:29;24.70;1.00
20463;DHT22;10390;53.566;9.980;2023-02-02T17:10:22;24.70;1.00
20463;DHT22;10390;53.566;9.980;2023-02-02T17:12:48;24.70;1.00
20463;DHT22;10390;53.566;9.980;2023-02-02T17:17:43;24.70;1.00
20463;DHT22;10390;53.566;9.980;2023-02-02T17:20:10;24.70;1.00
20463;DHT22;10390;53.566;9.980;2023-02-02T17:22:41;24.80;1.00
20463;DHT22;10390;53.566;9.980;2023-02-02T17:25:14;24.80;1.00
20463;DHT22;10390;53.566;9.980;2023-02-02T17:27:41;24.90;1.00
20463;DHT22;10390;53.566;9.980;2023-02-02T17:30:08;24.90;1.00
20463;DHT22;10390;53.566;9.980;2023-02-02T17:32:38;25.00;1.00
20463;DHT22;10390;53.566;9.980;2023-02-02T17:35:16;25.00;1.00
20463;DHT22;10390;53.566;9.980;2023-02-02T17:37:43;25.10;1.00
20463;DHT22;10390;53.566;9.980;2023-02-02T17:40:14;25.00;1.00
20463;DHT22;10390;53.566;9.980;2023-02-02T17:42:44;25.10;1.00
20463;DHT22;10390;53.566;9.980;2023-02-02T17:45:23;25.00;1.00
20463;DHT22;10390;53.566;9.980;2023-02-02T17:47:52;25.00;1.00
20463;DHT22;10390;53.566;9.980;2023-02-02T17:50:18;25.00;1.00
20463;DHT22;10390;53.566;9.980;2023-02-02T17:52:46;24.90;1.00
20463;DHT22;10390;53.566;9.980;2023-02-02T17:55:24;24.90;1.00
20463;DHT22;10390;53.566;9.980;2023-02-02T17:57:51;24.90;1.00
20463;DHT22;10390;53.566;9.980;2023-02-02T18:00:19;24.80;1.00
20463;DHT22;10390;53.566;9.980;2023-02-02T18:02:46;24.80;1.00
20463;DHT22;10390;53.566;9.980;2023-02-02T18:05:13;24.80;1.00
20463;DHT22;10390;53.566;9.980;2023-02-02T18:07:40;24.70;1.00
20463;DHT22;10390;53.566;9.980;2023-02-02T18:10:06;24.70;1.00
20463;DHT22;10390;53.566;9.980;2023-02-02T18:12:32;24.60;1.00
20463;DHT22;10390;53.566;9.980;2023-02-02T18:15:04;24.60;1.00
20463;DHT22;10390;53.566;9.980;2023-02-02T18:17:31;24.50;1.00
20463;DHT22;10390;53.566;9.980;2023-02-02T18:19:56;24.60;1.00
20463;DHT22;10390;53.566;9.980;2023-02-02T18:22:23;24.60;1.00
20463;DHT22;10390;53.566;9.980;2023-02-02T18:24:48;24.60;1.00